createdAt,value
2023-01-25T00:00:46.631Z,18.70
2023-01-25T00:03:13.512Z,18.90
2023-01-25T00:05:40.527Z,19.90
2023-01-25T00:08:07.478Z,17.50
2023-01-25T00:10:34.389Z,19.37
2023-01-25T00:13:01.284Z,19.50
2023-01-25T00:15:28.157Z,17.60
2023-01-25T00:17:55.015Z,20.93
2023-01-25T00:20:21.988Z,19.43
2023-01-25T00:22:48.857Z,19.07
2023-01-25T00:25:15.826Z,18.53
2023-01-25T00:27:42.786Z,18.80
2023-01-25T00:30:10.522Z,19.20
2023-01-25T00:32:48.550Z,19.83
2023-01-25T00:35:15.701Z,18.23
2023-01-25T00:37:44.696Z,18.90
2023-01-25T00:40:13.053Z,19.27
2023-01-25T00:42:41.001Z,19.30
2023-01-25T00:45:10.094Z,19.73
2023-01-25T00:47:37.185Z,19.60
2023-01-25T00:50:07.000Z,21.43
2023-01-25T00:52:33.950Z,20.53
2023-01-25T00:55:00.959Z,18.23
2023-01-25T00:57:28.094Z,20.50
2023-01-25T00:59:55.071Z,19.10
2023-01-25T01:02:22.013Z,20.40
2023-01-25T01:04:48.984Z,19.83
2023-01-25T01:07:16.217Z,19.90
2023-01-25T01:09:43.193Z,18.23
2023-01-25T01:12:10.131Z,17.33
2023-01-25T01:14:37.167Z,17.23
2023-01-25T01:17:05.282Z,15.30
2023-01-25T01:19:32.366Z,17.00
2023-01-25T01:21:59.309Z,16.77
2023-01-25T01:24:29.235Z,17.33
2023-01-25T01:26:56.262Z,17.33
2023-01-25T01:29:23.309Z,17.07
2023-01-25T01:31:55.606Z,18.40
2023-01-25T01:34:25.122Z,16.67
2023-01-25T01:36:52.213Z,17.90
2023-01-25T01:39:19.473Z,18.07
2023-01-25T01:41:46.506Z,16.67
2023-01-25T01:44:20.534Z,17.60
2023-01-25T01:46:58.786Z,16.63
2023-01-25T01:49:32.612Z,17.03
2023-01-25T01:52:16.531Z,17.47
2023-01-25T01:54:50.269Z,16.63
2023-01-25T01:57:22.597Z,17.70
2023-01-25T02:00:19.681Z,16.10
2023-01-25T02:02:49.515Z,17.80
2023-01-25T02:06:01.528Z,17.03
2023-01-25T02:08:33.821Z,17.20
2023-01-25T02:11:01.995Z,15.57
2023-01-25T02:13:29.222Z,14.40
2023-01-25T02:15:56.546Z,14.60
2023-01-25T02:18:25.128Z,16.03
2023-01-25T02:20:57.719Z,15.90
2023-01-25T02:23:56.557Z,14.20
2023-01-25T02:26:24.523Z,15.03
2023-01-25T02:29:06.284Z,13.70
2023-01-25T02:31:33.385Z,14.03
2023-01-25T02:34:01.120Z,14.80
2023-01-25T02:36:32.023Z,17.30
2023-01-25T02:39:12.151Z,17.47
2023-01-25T02:41:42.999Z,15.50
2023-01-25T02:44:18.376Z,14.57
2023-01-25T02:46:45.863Z,13.90
2023-01-25T02:49:14.526Z,15.57
2023-01-25T02:51:49.989Z,15.80
2023-01-25T02:54:20.638Z,14.47
2023-01-25T02:56:47.607Z,14.73
2023-01-25T02:59:14.676Z,14.03
2023-01-25T03:01:46.397Z,13.80
2023-01-25T03:04:13.731Z,14.20
2023-01-25T03:06:41.929Z,13.00
2023-01-25T03:09:11.506Z,14.07
2023-01-25T03:11:42.631Z,13.13
2023-01-25T03:14:10.554Z,13.23
2023-01-25T03:16:37.600Z,14.43
2023-01-25T03:19:05.906Z,14.67
2023-01-25T03:21:33.007Z,15.77
2023-01-25T03:24:02.125Z,15.67
2023-01-25T03:26:58.796Z,16.37
2023-01-25T03:29:37.841Z,14.43
2023-01-25T03:32:10.473Z,14.80
2023-01-25T03:34:37.551Z,17.10
2023-01-25T03:37:04.487Z,16.17
2023-01-25T03:39:33.673Z,15.80
2023-01-25T03:42:00.625Z,15.53
2023-01-25T03:44:27.609Z,14.30
2023-01-25T03:46:54.571Z,15.10
2023-01-25T03:49:21.642Z,14.53
2023-01-25T03:51:48.684Z,14.70
2023-01-25T03:54:17.041Z,15.70
2023-01-25T03:56:44.084Z,14.47
2023-01-25T03:59:23.723Z,14.17
2023-01-25T04:01:51.204Z,14.07
2023-01-25T04:04:19.109Z,14.43
2023-01-25T04:06:47.749Z,14.40
2023-01-25T04:09:15.578Z,14.50
2023-01-25T04:11:50.933Z,15.13
2023-01-25T04:14:23.274Z,14.17
2023-01-25T04:17:05.369Z,14.33
2023-01-25T04:19:40.717Z,13.43
2023-01-25T04:22:12.818Z,15.33
2023-01-25T04:24:39.931Z,15.70
2023-01-25T04:27:08.835Z,14.70
2023-01-25T04:29:42.915Z,14.80
2023-01-25T04:32:16.098Z,14.43
2023-01-25T04:34:43.244Z,14.50
2023-01-25T04:37:14.725Z,13.53
2023-01-25T04:39:54.589Z,13.30
2023-01-25T04:42:21.670Z,14.90
2023-01-25T04:44:53.484Z,13.70
2023-01-25T04:47:20.616Z,13.00
2023-01-25T04:49:47.553Z,14.97
2023-01-25T04:52:17.754Z,14.30
2023-01-25T04:54:44.990Z,15.20
2023-01-25T04:57:13.312Z,15.20
2023-01-25T04:59:43.383Z,15.13
2023-01-25T05:02:10.355Z,15.63
2023-01-25T05:04:37.482Z,16.50
2023-01-25T05:07:04.396Z,15.53
2023-01-25T05:09:31.553Z,15.53
2023-01-25T05:11:58.811Z,14.70
2023-01-25T05:14:38.856Z,16.00
2023-01-25T05:17:07.951Z,15.17
2023-01-25T05:19:36.240Z,17.30
2023-01-25T05:22:07.736Z,15.57
2023-01-25T05:24:43.309Z,14.97
2023-01-25T05:27:15.483Z,17.40
2023-01-25T05:30:06.022Z,16.80
2023-01-25T05:32:41.059Z,16.10
2023-01-25T05:35:08.923Z,13.30
2023-01-25T05:37:36.210Z,14.27
2023-01-25T05:40:08.432Z,15.93
2023-01-25T05:42:38.111Z,14.73
2023-01-25T05:45:10.002Z,15.00
2023-01-25T05:47:39.478Z,15.83
2023-01-25T05:50:08.788Z,15.20
2023-01-25T05:52:52.541Z,15.13
2023-01-25T05:55:19.475Z,15.50
2023-01-25T05:57:47.107Z,17.13
2023-01-25T06:00:14.861Z,18.80
2023-01-25T06:02:42.225Z,18.60
2023-01-25T06:05:14.234Z,16.50
2023-01-25T06:07:41.372Z,16.33
2023-01-25T06:10:09.327Z,16.33
2023-01-25T06:12:36.928Z,17.30
2023-01-25T06:15:04.209Z,18.58
2023-01-25T06:17:31.158Z,18.47
2023-01-25T06:20:07.666Z,19.03
2023-01-25T06:22:36.519Z,19.13
2023-01-25T06:25:03.735Z,17.53
2023-01-25T06:27:30.887Z,16.53
2023-01-25T06:29:57.778Z,18.50
2023-01-25T06:32:25.901Z,18.10
2023-01-25T06:34:53.178Z,17.90
2023-01-25T06:37:22.929Z,19.67
2023-01-25T06:39:50.101Z,21.07
2023-01-25T06:42:17.041Z,18.67
2023-01-25T06:44:43.951Z,19.87
2023-01-25T06:47:12.469Z,17.37
2023-01-25T06:49:39.340Z,19.67
2023-01-25T06:52:06.243Z,21.37
2023-01-25T06:54:33.824Z,21.50
2023-01-25T06:57:00.727Z,22.47
2023-01-25T06:59:27.623Z,20.67
2023-01-25T07:01:54.597Z,19.33
2023-01-25T07:04:21.535Z,20.60
2023-01-25T07:06:48.497Z,21.47
2023-01-25T07:09:15.788Z,21.90
2023-01-25T07:11:42.704Z,20.07
2023-01-25T07:14:09.603Z,22.60
2023-01-25T07:16:37.228Z,23.50
2023-01-25T07:19:09.460Z,22.60
2023-01-25T07:21:37.218Z,21.70
2023-01-25T07:24:05.411Z,22.17
2023-01-25T07:26:32.931Z,20.87
2023-01-25T07:29:00.402Z,20.93
2023-01-25T07:31:28.339Z,23.60
2023-01-25T07:33:57.831Z,22.47
2023-01-25T07:36:26.009Z,22.10
2023-01-25T07:38:55.530Z,22.10
2023-01-25T07:41:24.656Z,22.70
2023-01-25T07:43:52.640Z,23.37
2023-01-25T07:46:34.152Z,24.67
2023-01-25T07:49:01.037Z,24.30
2023-01-25T07:51:30.765Z,23.93
2023-01-25T07:54:01.336Z,22.70
2023-01-25T07:56:31.738Z,24.63
2023-01-25T07:59:02.685Z,23.73
2023-01-25T08:01:34.973Z,23.00
2023-01-25T08:04:03.526Z,22.80
2023-01-25T08:06:38.886Z,20.33
2023-01-25T08:09:19.753Z,23.87
2023-01-25T08:11:49.232Z,21.40
2023-01-25T08:14:16.284Z,21.50
2023-01-25T08:16:43.258Z,23.63
2023-01-25T08:19:10.996Z,23.00
2023-01-25T08:21:38.002Z,21.37
2023-01-25T08:24:07.210Z,21.80
2023-01-25T08:26:36.196Z,23.33
2023-01-25T08:29:04.176Z,23.00
2023-01-25T08:31:34.479Z,23.00
2023-01-25T08:34:02.247Z,23.43
2023-01-25T08:36:29.911Z,24.07
2023-01-25T08:39:05.545Z,24.80
2023-01-25T08:41:35.248Z,22.50
2023-01-25T08:44:02.301Z,25.43
2023-01-25T08:46:33.234Z,23.93
2023-01-25T08:49:02.164Z,23.60
2023-01-25T08:51:31.515Z,23.10
2023-01-25T08:54:03.804Z,23.60
2023-01-25T08:56:30.777Z,23.23
2023-01-25T08:58:57.705Z,23.30
2023-01-25T09:01:24.584Z,22.97
2023-01-25T09:03:51.790Z,24.13
2023-01-25T09:06:20.213Z,25.10
2023-01-25T09:08:47.725Z,23.50
2023-01-25T09:11:21.195Z,24.63
2023-01-25T09:13:49.040Z,22.90
2023-01-25T09:16:27.970Z,25.10
2023-01-25T09:19:01.638Z,24.00
2023-01-25T09:21:29.495Z,23.73
2023-01-25T09:24:05.988Z,24.27
2023-01-25T09:26:45.950Z,21.83
2023-01-25T09:29:16.947Z,22.57
2023-01-25T09:31:44.310Z,21.40
2023-01-25T09:34:22.558Z,19.47
2023-01-25T09:36:49.759Z,20.47
2023-01-25T09:39:16.692Z,21.20
2023-01-25T09:42:22.380Z,20.23
2023-01-25T09:45:17.788Z,16.30
2023-01-25T09:48:09.727Z,19.17
2023-01-25T09:51:03.691Z,17.53
2023-01-25T09:53:35.804Z,18.07
2023-01-25T09:56:27.752Z,18.03
2023-01-25T09:59:00.383Z,18.53
2023-01-25T10:01:38.914Z,19.03
2023-01-25T10:04:22.768Z,17.73
2023-01-25T10:07:00.528Z,18.47
2023-01-25T10:09:37.626Z,18.30
2023-01-25T10:12:23.928Z,18.67
2023-01-25T10:14:52.315Z,17.57
2023-01-25T10:17:39.783Z,19.67
2023-01-25T10:20:44.525Z,19.67
2023-01-25T10:23:50.601Z,16.87
2023-01-25T10:26:29.881Z,17.03
2023-01-25T10:29:12.942Z,16.17
2023-01-25T10:32:17.349Z,15.87
2023-01-25T10:34:56.747Z,17.40
2023-01-25T10:37:31.310Z,17.70
2023-01-25T10:40:12.002Z,16.00
2023-01-25T10:42:49.135Z,17.30
2023-01-25T10:45:17.604Z,18.10
2023-01-25T10:47:54.361Z,18.77
2023-01-25T10:50:42.236Z,16.97
2023-01-25T10:53:35.760Z,17.93
2023-01-25T10:56:11.843Z,16.10
2023-01-25T10:58:42.693Z,17.70
2023-01-25T11:01:25.060Z,16.70
2023-01-25T11:03:52.167Z,19.00
2023-01-25T11:06:34.849Z,119.83
2023-01-25T11:09:31.258Z,21.57
2023-01-25T11:12:11.754Z,19.60
2023-01-25T11:14:38.685Z,18.83
2023-01-25T11:17:07.196Z,16.50
2023-01-25T11:19:40.341Z,20.00
2023-01-25T11:22:24.363Z,18.80
2023-01-25T11:24:51.248Z,20.17
2023-01-25T11:27:19.992Z,20.80
2023-01-25T11:30:12.799Z,19.33
2023-01-25T11:32:41.245Z,20.00
2023-01-25T11:35:22.888Z,17.10
2023-01-25T11:38:14.657Z,19.30
2023-01-25T11:40:55.085Z,19.00
2023-01-25T11:43:45.206Z,18.77
2023-01-25T11:46:43.200Z,20.30
2023-01-25T11:49:42.127Z,21.73
2023-01-25T11:52:53.389Z,20.13
2023-01-25T11:55:35.579Z,22.50
2023-01-25T11:58:32.623Z,22.60
2023-01-25T12:01:27.792Z,19.97
2023-01-25T12:04:28.303Z,19.87
2023-01-25T12:07:03.832Z,20.23
2023-01-25T12:09:54.797Z,21.07
2023-01-25T12:12:46.926Z,19.20
2023-01-25T12:15:36.082Z,20.60
2023-01-25T12:18:33.693Z,18.50
2023-01-25T12:21:22.973Z,18.47
2023-01-25T12:24:58.551Z,18.53
2023-01-25T12:27:54.103Z,18.43
2023-01-25T12:30:38.937Z,18.20
2023-01-25T12:33:46.450Z,21.10
2023-01-25T12:36:31.342Z,20.87
2023-01-25T12:39:18.214Z,18.70
2023-01-25T12:41:55.074Z,19.97
2023-01-25T12:44:39.049Z,23.17
2023-01-25T12:47:20.716Z,18.03
2023-01-25T12:49:55.298Z,18.10
2023-01-25T12:52:48.755Z,18.37
2023-01-25T12:55:18.632Z,18.97
2023-01-25T12:58:19.771Z,18.93
2023-01-25T13:01:23.613Z,19.40
2023-01-25T13:04:39.872Z,20.93
2023-01-25T13:07:31.526Z,21.50
2023-01-25T13:10:31.453Z,23.23
2023-01-25T13:13:04.128Z,21.30
2023-01-25T13:15:42.408Z,22.70
2023-01-25T13:18:24.615Z,23.47
2023-01-25T13:20:54.050Z,24.17
2023-01-25T13:23:35.016Z,21.03
2023-01-25T13:26:20.852Z,23.00
2023-01-25T13:28:55.800Z,21.57
2023-01-25T13:31:59.078Z,22.10
2023-01-25T13:34:39.074Z,19.60
2023-01-25T13:37:32.994Z,22.23
2023-01-25T13:40:19.700Z,20.43
2023-01-25T13:43:00.897Z,21.40
2023-01-25T13:45:29.220Z,26.93
2023-01-25T13:48:11.505Z,23.97
2023-01-25T13:50:46.123Z,21.20
2023-01-25T13:53:15.928Z,36.40
2023-01-25T13:55:46.765Z,26.10
2023-01-25T13:58:19.611Z,31.70
2023-01-25T14:00:57.808Z,27.47
2023-01-25T14:03:50.623Z,21.33
2023-01-25T14:06:25.196Z,22.50
2023-01-25T14:08:55.469Z,20.70
2023-01-25T14:11:26.051Z,23.03
2023-01-25T14:14:29.142Z,22.77
2023-01-25T14:17:18.186Z,21.00
2023-01-25T14:19:53.467Z,22.63
2023-01-25T14:22:29.814Z,22.97
2023-01-25T14:25:15.425Z,20.87
2023-01-25T14:27:52.604Z,21.77
2023-01-25T14:30:27.904Z,25.80
2023-01-25T14:32:58.434Z,22.77
2023-01-25T14:35:54.175Z,26.20
2023-01-25T14:38:26.730Z,16.90
2023-01-25T14:41:03.926Z,19.10
2023-01-25T14:43:31.377Z,20.77
2023-01-25T14:45:58.379Z,24.50
2023-01-25T14:48:41.678Z,21.37
2023-01-25T14:51:30.480Z,20.77
2023-01-25T14:54:06.143Z,21.63
2023-01-25T14:56:45.774Z,20.10
2023-01-25T14:59:31.656Z,24.33
2023-01-25T15:02:18.307Z,22.10
2023-01-25T15:05:02.813Z,21.73
2023-01-25T15:07:50.009Z,19.37
2023-01-25T15:10:36.747Z,23.50
2023-01-25T15:13:14.437Z,22.47
2023-01-25T15:15:58.567Z,27.37
2023-01-25T15:18:43.810Z,23.70
2023-01-25T15:21:31.953Z,24.80
2023-01-25T15:24:06.308Z,22.37
2023-01-25T15:26:35.561Z,20.43
2023-01-25T15:29:12.071Z,22.57
2023-01-25T15:31:39.459Z,20.83
2023-01-25T15:34:09.800Z,22.93
2023-01-25T15:36:36.699Z,22.03
2023-01-25T15:39:04.072Z,19.97
2023-01-25T15:41:30.958Z,21.07
2023-01-25T15:43:57.942Z,23.67
2023-01-25T15:46:30.457Z,22.87
2023-01-25T15:48:57.403Z,22.53
2023-01-25T15:51:24.406Z,20.00
2023-01-25T15:53:51.488Z,23.10
2023-01-25T15:56:24.666Z,27.70
2023-01-25T15:58:55.068Z,28.80
2023-01-25T16:01:27.745Z,24.40
2023-01-25T16:03:59.599Z,24.43
2023-01-25T16:06:48.418Z,25.17
2023-01-25T16:09:29.466Z,24.43
2023-01-25T16:12:00.051Z,22.20
2023-01-25T16:14:30.139Z,21.43
2023-01-25T16:17:04.077Z,20.20
2023-01-25T16:19:32.156Z,22.37
2023-01-25T16:21:59.538Z,26.47
2023-01-25T16:24:26.679Z,24.60
2023-01-25T16:26:58.966Z,26.73
2023-01-25T16:29:26.638Z,24.33
2023-01-25T16:31:54.811Z,25.80
2023-01-25T16:34:22.136Z,24.73
2023-01-25T16:36:53.076Z,24.77
2023-01-25T16:39:25.340Z,28.97
2023-01-25T16:41:52.564Z,27.40
2023-01-25T16:44:19.676Z,25.50
2023-01-25T16:46:48.963Z,26.30
2023-01-25T16:49:19.969Z,29.90
2023-01-25T16:51:48.914Z,30.07
2023-01-25T16:54:16.097Z,25.67
2023-01-25T16:56:42.990Z,27.90
2023-01-25T16:59:11.359Z,27.93
2023-01-25T17:01:41.312Z,29.27
2023-01-25T17:04:09.527Z,25.70
2023-01-25T17:06:43.124Z,26.10
2023-01-25T17:09:23.013Z,27.07
2023-01-25T17:11:50.856Z,30.83
2023-01-25T17:14:19.256Z,27.30
2023-01-25T17:16:48.357Z,28.37
2023-01-25T17:19:17.281Z,30.37
2023-01-25T17:21:45.550Z,27.37
2023-01-25T17:24:21.462Z,28.10
2023-01-25T17:26:49.022Z,27.00
2023-01-25T17:29:15.993Z,27.77
2023-01-25T17:31:44.355Z,29.67
2023-01-25T17:34:16.010Z,28.63
2023-01-25T17:36:44.034Z,28.50
2023-01-25T17:39:15.286Z,29.10
2023-01-25T17:41:47.078Z,27.47
2023-01-25T17:44:20.051Z,27.37
2023-01-25T17:46:47.482Z,26.00
2023-01-25T17:49:16.833Z,25.83
2023-01-25T17:51:45.128Z,25.70
2023-01-25T17:54:12.995Z,28.07
2023-01-25T17:56:40.313Z,27.50
2023-01-25T17:59:08.989Z,26.97
2023-01-25T18:01:36.461Z,24.93
2023-01-25T18:04:07.491Z,27.03
2023-01-25T18:06:35.026Z,26.00
2023-01-25T18:09:03.864Z,25.37
2023-01-25T18:11:34.315Z,24.67
2023-01-25T18:14:10.580Z,25.90
2023-01-25T18:16:40.423Z,24.73
2023-01-25T18:19:08.514Z,25.40
2023-01-25T18:21:36.210Z,26.60
2023-01-25T18:24:34.799Z,27.80
2023-01-25T18:27:23.997Z,22.53
2023-01-25T18:30:37.288Z,25.90
2023-01-25T18:33:05.574Z,26.70
2023-01-25T18:35:32.730Z,25.13
2023-01-25T18:37:59.831Z,24.87
2023-01-25T18:40:26.772Z,25.50
2023-01-25T18:42:53.679Z,28.77
2023-01-25T18:45:21.430Z,27.87
2023-01-25T18:47:49.176Z,25.80
2023-01-25T18:50:16.338Z,24.13
2023-01-25T18:52:44.267Z,26.40
2023-01-25T18:55:12.474Z,23.40
2023-01-25T18:57:39.652Z,24.33
2023-01-25T19:00:10.946Z,27.23
2023-01-25T19:02:37.957Z,25.33
2023-01-25T19:05:05.222Z,26.43
2023-01-25T19:07:33.223Z,32.07
2023-01-25T19:10:00.176Z,25.50
2023-01-25T19:12:27.429Z,27.90
2023-01-25T19:14:54.537Z,28.27
2023-01-25T19:17:21.441Z,26.30
2023-01-25T19:19:48.398Z,27.00
2023-01-25T19:22:15.332Z,28.80
2023-01-25T19:24:43.214Z,30.07
2023-01-25T19:27:10.149Z,29.27
2023-01-25T19:29:37.123Z,27.63
2023-01-25T19:32:04.136Z,27.27
2023-01-25T19:34:31.067Z,28.37
2023-01-25T19:36:58.231Z,29.03
2023-01-25T19:39:26.136Z,28.30
2023-01-25T19:41:53.456Z,29.80
2023-01-25T19:44:21.317Z,28.80
2023-01-25T19:46:48.790Z,29.00
2023-01-25T19:49:15.758Z,31.63
2023-01-25T19:51:46.260Z,28.07
2023-01-25T19:54:17.094Z,28.03
2023-01-25T19:56:47.957Z,27.40
2023-01-25T19:59:18.850Z,28.10
2023-01-25T20:01:46.378Z,28.63
2023-01-25T20:04:16.865Z,30.17
2023-01-25T20:06:44.118Z,26.10
2023-01-25T20:09:17.385Z,28.47
2023-01-25T20:11:45.948Z,28.63
2023-01-25T20:14:14.196Z,26.70
2023-01-25T20:16:41.506Z,26.97
2023-01-25T20:19:11.903Z,27.37
2023-01-25T20:21:39.667Z,26.60
2023-01-25T20:24:09.711Z,31.23
2023-01-25T20:26:39.246Z,29.10
2023-01-25T20:29:07.547Z,26.60
2023-01-25T20:31:41.149Z,27.70
2023-01-25T20:34:21.659Z,28.93
2023-01-25T20:36:51.457Z,27.47
2023-01-25T20:39:21.340Z,27.80
2023-01-25T20:41:49.921Z,27.70
2023-01-25T20:44:18.000Z,31.03
2023-01-25T20:46:45.669Z,28.60
2023-01-25T20:49:18.418Z,29.07
2023-01-25T20:51:46.274Z,29.00
2023-01-25T20:54:13.673Z,28.00
2023-01-25T20:56:40.832Z,26.93
2023-01-25T20:59:07.780Z,27.60
2023-01-25T21:01:37.054Z,28.23
2023-01-25T21:04:07.036Z,28.93
2023-01-25T21:06:35.203Z,26.30
2023-01-25T21:09:03.171Z,29.20
2023-01-25T21:11:30.226Z,27.93
2023-01-25T21:13:58.225Z,29.67
2023-01-25T21:16:26.325Z,28.47
2023-01-25T21:18:56.387Z,28.03
2023-01-25T21:21:28.448Z,28.50
2023-01-25T21:23:59.665Z,30.70
2023-01-25T21:26:30.778Z,30.90
2023-01-25T21:29:00.594Z,29.60
2023-01-25T21:31:32.808Z,25.67
2023-01-25T21:34:00.776Z,29.73
2023-01-25T21:36:28.201Z,30.17
2023-01-25T21:38:55.829Z,28.87
2023-01-25T21:41:26.158Z,29.27
2023-01-25T21:44:14.081Z,31.60
2023-01-25T21:46:41.708Z,30.93
2023-01-25T21:49:30.540Z,29.20
2023-01-25T21:52:01.934Z,29.07
2023-01-25T21:54:30.925Z,31.07
2023-01-25T21:56:59.727Z,30.90
2023-01-25T21:59:26.934Z,29.77
2023-01-25T22:01:55.393Z,29.30
2023-01-25T22:04:24.363Z,29.67
2023-01-25T22:06:54.760Z,28.93
2023-01-25T22:09:24.709Z,32.37
2023-01-25T22:11:53.441Z,29.00
2023-01-25T22:14:23.015Z,30.73
2023-01-25T22:16:54.196Z,29.97
2023-01-25T22:19:21.236Z,29.07
2023-01-25T22:21:48.444Z,29.70
2023-01-25T22:24:15.364Z,30.60
2023-01-25T22:27:06.381Z,33.23
2023-01-25T22:29:34.103Z,34.07
2023-01-25T22:32:02.140Z,31.07
2023-01-25T22:34:29.142Z,32.10
2023-01-25T22:36:56.130Z,34.17
2023-01-25T22:39:22.999Z,33.73
2023-01-25T22:41:49.924Z,37.40
2023-01-25T22:44:16.842Z,34.80
2023-01-25T22:46:43.830Z,34.53
2023-01-25T22:49:10.909Z,35.07
2023-01-25T22:51:37.819Z,33.57
2023-01-25T22:54:05.229Z,34.23
2023-01-25T22:56:33.773Z,35.80
2023-01-25T22:59:01.944Z,36.13
2023-01-25T23:01:34.296Z,36.80
2023-01-25T23:04:02.330Z,36.50
2023-01-25T23:06:34.044Z,40.67
2023-01-25T23:09:04.552Z,38.27
2023-01-25T23:11:37.765Z,35.80
2023-01-25T23:14:27.319Z,33.77
2023-01-25T23:17:14.424Z,33.30
2023-01-25T23:19:41.441Z,35.50
2023-01-25T23:22:08.351Z,35.77
2023-01-25T23:24:35.284Z,33.70
2023-01-25T23:27:02.203Z,36.20
2023-01-25T23:29:29.093Z,37.00
2023-01-25T23:31:56.024Z,38.07
2023-01-25T23:34:22.953Z,33.30
2023-01-25T23:36:49.841Z,37.70
2023-01-25T23:39:16.735Z,38.10
2023-01-25T23:41:43.650Z,37.50
2023-01-25T23:44:10.526Z,36.87
2023-01-25T23:46:37.541Z,38.10
2023-01-25T23:49:04.617Z,37.97
2023-01-25T23:51:31.501Z,37.73
2023-01-25T23:53:58.425Z,37.47
2023-01-25T23:56:25.422Z,40.23
2023-01-25T23:58:52.398Z,40.03
